createdAt,value
2023-01-20T00:00:34.723Z,18.77
2023-01-20T00:03:02.046Z,17.25
2023-01-20T00:05:29.011Z,17.63
2023-01-20T00:07:56.124Z,18.60
2023-01-20T00:10:23.298Z,18.30
2023-01-20T00:12:50.578Z,15.73
2023-01-20T00:15:17.588Z,20.55
2023-01-20T00:17:44.617Z,20.55
2023-01-20T00:20:12.685Z,23.25
2023-01-20T00:22:42.343Z,20.15
2023-01-20T00:25:12.681Z,20.65
2023-01-20T00:27:39.798Z,20.10
2023-01-20T00:30:08.102Z,16.23
2023-01-20T00:32:45.535Z,21.27
2023-01-20T00:35:13.036Z,23.63
2023-01-20T00:42:17.237Z,25.05
2023-01-20T00:44:44.209Z,20.52
2023-01-20T00:47:11.214Z,21.33
2023-01-20T00:49:38.187Z,22.15
2023-01-20T00:52:05.544Z,20.42
2023-01-20T00:54:32.518Z,23.10
2023-01-20T00:56:59.581Z,24.25
2023-01-20T00:59:26.546Z,24.92
2023-01-20T01:01:53.703Z,25.77
2023-01-20T01:04:20.757Z,21.67
2023-01-20T01:06:50.284Z,24.92
2023-01-20T01:09:17.362Z,22.67
2023-01-20T01:11:44.979Z,22.45
2023-01-20T01:14:11.919Z,22.95
2023-01-20T01:26:06.892Z,23.55
2023-01-20T01:28:33.968Z,23.10
2023-01-20T01:38:57.121Z,34.40
2023-01-20T01:42:02.780Z,24.63
2023-01-20T02:13:25.053Z,28.05
2023-01-20T02:16:37.527Z,25.40
2023-01-20T02:19:09.641Z,27.38
2023-01-20T02:22:26.339Z,32.80
2023-01-20T02:25:29.542Z,26.10
2023-01-20T02:28:44.742Z,30.05
2023-01-20T02:32:10.663Z,32.13
2023-01-20T02:39:49.712Z,31.73
2023-01-20T02:42:49.713Z,35.92
2023-01-20T02:45:43.614Z,34.25
2023-01-20T02:48:28.886Z,34.13
2023-01-20T02:51:17.033Z,34.03
2023-01-20T02:54:05.716Z,26.17
2023-01-20T02:56:35.067Z,30.85
2023-01-20T02:59:26.655Z,28.70
2023-01-20T03:02:06.657Z,31.77
2023-01-20T03:04:51.856Z,32.38
2023-01-20T03:07:23.513Z,27.52
2023-01-20T03:09:55.706Z,29.50
2023-01-20T03:12:38.595Z,30.35
2023-01-20T03:15:07.337Z,31.23
2023-01-20T03:17:35.389Z,34.22
2023-01-20T03:20:02.645Z,27.08
2023-01-20T03:22:32.265Z,29.00
2023-01-20T03:25:00.434Z,30.67
2023-01-20T03:27:27.605Z,29.98
2023-01-20T03:29:54.651Z,28.95
2023-01-20T03:32:26.846Z,26.25
2023-01-20T03:34:58.561Z,30.38
2023-01-20T03:37:25.909Z,25.92
2023-01-20T03:39:53.061Z,25.58
2023-01-20T03:42:45.507Z,34.08
2023-01-20T03:45:29.776Z,28.23
2023-01-20T03:48:46.357Z,32.25
2023-01-20T03:51:33.429Z,26.60
2023-01-20T03:54:08.515Z,28.55
2023-01-20T03:56:49.455Z,27.55
2023-01-20T03:59:20.607Z,32.83
2023-01-20T04:01:48.765Z,34.50
2023-01-20T04:04:19.498Z,30.73
2023-01-20T04:06:50.394Z,29.70
2023-01-20T04:09:31.504Z,28.85
2023-01-20T04:12:00.671Z,29.42
2023-01-20T04:14:27.805Z,27.27
2023-01-20T04:16:58.207Z,33.25
2023-01-20T04:19:26.883Z,31.83
2023-01-20T04:22:14.332Z,29.95
2023-01-20T04:24:52.618Z,33.47
2023-01-20T04:27:19.707Z,36.53
2023-01-20T04:29:46.691Z,34.60
2023-01-20T04:32:13.742Z,38.28
2023-01-20T04:34:40.714Z,37.50
2023-01-20T04:37:07.713Z,36.50
2023-01-20T04:39:34.663Z,39.83
2023-01-20T04:42:01.687Z,32.78
2023-01-20T04:44:28.706Z,33.15
2023-01-20T04:46:59.629Z,34.88
2023-01-20T04:49:26.847Z,44.47
2023-01-20T04:51:54.003Z,43.92
2023-01-20T04:54:21.046Z,38.17
2023-01-20T04:56:49.422Z,40.97
2023-01-20T04:59:17.226Z,35.88
2023-01-20T05:01:44.496Z,47.17
2023-01-20T05:04:11.583Z,41.25
2023-01-20T05:06:42.586Z,43.50
2023-01-20T05:09:15.344Z,45.00
2023-01-20T05:11:43.761Z,40.40
2023-01-20T05:14:14.538Z,36.55
2023-01-20T05:16:41.699Z,45.85
2023-01-20T05:19:11.202Z,38.15
2023-01-20T05:21:38.463Z,38.33
2023-01-20T05:24:05.874Z,40.92
2023-01-20T05:26:33.240Z,38.20
2023-01-20T05:29:00.528Z,41.13
2023-01-20T05:31:27.693Z,41.35
2023-01-20T05:33:54.919Z,48.50
2023-01-20T05:36:22.088Z,46.28
2023-01-20T05:38:49.124Z,43.35
2023-01-20T05:41:16.089Z,41.90
2023-01-20T05:43:43.122Z,46.35
2023-01-20T05:46:10.284Z,46.65
2023-01-20T05:48:37.441Z,46.25
2023-01-20T05:51:04.563Z,47.97
2023-01-20T05:53:31.654Z,45.55
2023-01-20T05:56:01.792Z,46.80
2023-01-20T05:58:30.499Z,45.47
2023-01-20T06:01:13.498Z,47.85
2023-01-20T06:03:41.148Z,50.05
2023-01-20T06:06:15.499Z,41.20
2023-01-20T06:08:42.942Z,40.75
2023-01-20T06:11:10.411Z,42.55
2023-01-20T06:13:39.571Z,42.10
2023-01-20T06:16:07.582Z,37.35
2023-01-20T06:18:35.398Z,35.08
2023-01-20T06:21:15.544Z,47.10
2023-01-20T06:23:43.500Z,40.08
2023-01-20T06:32:44.588Z,41.30
2023-01-20T06:40:18.756Z,46.60
2023-01-20T06:42:45.707Z,43.92
2023-01-20T06:45:12.930Z,45.55
2023-01-20T06:47:40.271Z,47.42
2023-01-20T06:50:08.213Z,42.20
2023-01-20T06:52:35.204Z,38.83
2023-01-20T06:55:02.245Z,44.55
2023-01-20T06:57:36.579Z,50.33
2023-01-20T07:00:04.423Z,54.30
2023-01-20T07:02:32.658Z,49.30
2023-01-20T07:05:08.171Z,50.42
2023-01-20T07:07:37.862Z,49.35
2023-01-20T07:10:05.609Z,46.92
2023-01-20T07:12:32.719Z,46.25
2023-01-20T07:15:25.421Z,41.55
2023-01-20T07:26:49.806Z,53.78
2023-01-20T07:29:56.521Z,41.38
2023-01-20T07:33:48.030Z,44.70
2023-01-20T07:36:17.941Z,38.28
2023-01-20T07:38:50.096Z,44.95
2023-01-20T07:41:20.005Z,46.75
2023-01-20T07:43:50.227Z,41.08
2023-01-20T07:46:20.245Z,43.72
2023-01-20T07:48:47.392Z,50.80
2023-01-20T07:54:13.150Z,42.15
2023-01-20T07:56:40.241Z,44.17
2023-01-20T07:59:07.234Z,44.80
2023-01-20T08:01:34.511Z,40.00
2023-01-20T08:04:02.637Z,37.25
2023-01-20T08:06:30.765Z,41.08
2023-01-20T08:09:01.581Z,38.88
2023-01-20T08:11:46.337Z,40.00
2023-01-20T08:14:13.703Z,46.95
2023-01-20T08:16:40.825Z,43.33
2023-01-20T08:19:08.150Z,35.78
2023-01-20T08:21:35.117Z,43.50
2023-01-20T08:24:06.589Z,39.47
2023-01-20T08:26:34.344Z,41.93
2023-01-20T08:29:08.005Z,38.65
2023-01-20T08:31:36.655Z,36.78
2023-01-20T08:35:18.510Z,36.65
2023-01-20T08:37:52.095Z,37.50
2023-01-20T08:40:19.332Z,45.20
2023-01-20T08:43:17.548Z,41.67
2023-01-20T08:46:16.521Z,40.47
2023-01-20T08:53:17.120Z,37.38
2023-01-20T08:58:45.549Z,42.63
2023-01-20T09:01:44.226Z,43.22
2023-01-20T09:04:23.240Z,41.17
2023-01-20T09:07:10.218Z,50.22
2023-01-20T09:10:00.037Z,42.92
2023-01-20T09:12:47.792Z,44.75
2023-01-20T09:19:34.759Z,45.30
2023-01-20T09:24:49.781Z,48.72
2023-01-20T09:28:01.791Z,51.63
2023-01-20T09:31:10.845Z,49.28
2023-01-20T09:34:07.796Z,46.60
2023-01-20T09:46:26.174Z,41.35
2023-01-20T09:49:47.331Z,41.03
2023-01-20T09:52:52.908Z,37.35
2023-01-20T09:55:49.971Z,41.03
2023-01-20T09:59:03.513Z,43.83
2023-01-20T10:01:40.622Z,43.95
2023-01-20T10:05:15.824Z,35.22
2023-01-20T10:07:48.261Z,42.80
2023-01-20T10:10:28.251Z,41.35
2023-01-20T10:13:47.382Z,36.30
2023-01-20T10:16:35.503Z,34.80
2023-01-20T10:20:14.737Z,37.40
2023-01-20T10:23:44.907Z,39.67
2023-01-20T10:27:11.267Z,40.30
2023-01-20T10:30:39.111Z,39.22
2023-01-20T10:33:11.698Z,40.25
2023-01-20T10:35:50.700Z,44.33
2023-01-20T10:38:39.281Z,35.17
2023-01-20T10:41:19.752Z,40.78
2023-01-20T10:43:48.101Z,38.75
2023-01-20T10:46:24.050Z,41.33
2023-01-20T10:49:37.215Z,38.92
2023-01-20T10:56:02.213Z,40.55
2023-01-20T10:58:56.816Z,45.35
2023-01-20T11:01:33.362Z,42.53
2023-01-20T11:05:10.079Z,38.15
2023-01-20T11:08:28.688Z,43.08
2023-01-20T11:11:11.518Z,41.90
2023-01-20T11:13:38.915Z,42.67
2023-01-20T11:16:29.070Z,43.97
2023-01-20T11:19:18.803Z,45.03
2023-01-20T11:22:14.466Z,42.42
2023-01-20T11:24:43.859Z,40.65
2023-01-20T11:27:22.242Z,45.97
2023-01-20T11:30:09.735Z,40.17
2023-01-20T11:47:06.312Z,46.80
2023-01-20T11:49:49.399Z,30.88
2023-01-20T11:53:19.407Z,41.53
2023-01-20T12:04:23.344Z,40.45
2023-01-20T12:07:11.636Z,43.80
2023-01-20T12:09:45.329Z,47.42
2023-01-20T12:12:36.562Z,46.45
2023-01-20T12:15:16.257Z,49.42
2023-01-20T12:18:10.811Z,46.83
2023-01-20T12:21:28.002Z,44.67
2023-01-20T12:24:56.110Z,48.30
2023-01-20T12:27:28.262Z,49.40
2023-01-20T12:30:02.561Z,47.75
2023-01-20T12:33:04.178Z,48.97
2023-01-20T12:35:44.607Z,50.50
2023-01-20T12:38:19.082Z,49.15
2023-01-20T12:40:52.901Z,44.67
2023-01-20T12:43:55.983Z,49.58
2023-01-20T12:49:44.661Z,46.42
2023-01-20T13:12:59.125Z,47.40
2023-01-20T13:15:40.644Z,48.75
2023-01-20T13:19:10.721Z,47.20
2023-01-20T13:21:40.307Z,53.00
2023-01-20T13:24:30.239Z,45.97
2023-01-20T13:27:09.384Z,51.40
2023-01-20T13:29:47.543Z,51.50
2023-01-20T13:33:11.123Z,53.47
2023-01-20T13:35:50.447Z,50.72
2023-01-20T13:38:33.044Z,52.30
2023-01-20T13:41:06.372Z,58.67
2023-01-20T13:43:45.772Z,49.92
2023-01-20T13:46:21.616Z,47.00
2023-01-20T13:49:27.750Z,58.22
2023-01-20T13:51:56.524Z,50.78
2023-01-20T13:54:29.135Z,48.08
2023-01-20T13:57:23.377Z,51.03
2023-01-20T13:59:51.039Z,58.30
2023-01-20T14:02:20.913Z,55.78
2023-01-20T14:04:59.951Z,59.67
2023-01-20T14:07:31.139Z,58.28
2023-01-20T14:10:02.811Z,56.03
2023-01-20T14:20:46.805Z,55.25
2023-01-20T14:35:36.095Z,51.08
2023-01-20T14:38:04.787Z,65.15
2023-01-20T14:40:40.210Z,55.90
2023-01-20T14:43:24.986Z,58.97
2023-01-20T14:45:53.881Z,53.58
2023-01-20T14:48:36.073Z,57.58
2023-01-20T14:51:04.444Z,54.80
2023-01-20T14:53:35.398Z,54.65
2023-01-20T14:56:07.980Z,60.22
2023-01-20T14:58:43.856Z,60.70
2023-01-20T15:01:22.381Z,60.88
2023-01-20T15:22:15.350Z,57.75
2023-01-20T15:25:04.111Z,67.47
2023-01-20T15:28:11.409Z,62.53
2023-01-20T15:34:20.003Z,60.92
2023-01-20T15:36:58.779Z,64.72
2023-01-20T15:39:37.911Z,57.60
2023-01-20T15:42:15.227Z,65.22
2023-01-20T15:44:46.722Z,60.15
2023-01-20T15:47:31.406Z,53.72
2023-01-20T15:49:59.771Z,62.63
2023-01-20T15:52:38.937Z,61.33
2023-01-20T15:55:07.408Z,57.00
2023-01-20T15:57:47.656Z,63.70
2023-01-20T16:00:57.370Z,67.40
2023-01-20T16:03:29.088Z,59.33
2023-01-20T16:06:26.648Z,60.17
2023-01-20T16:09:37.355Z,58.60
2023-01-20T16:12:05.678Z,63.35
2023-01-20T16:14:34.607Z,61.03
2023-01-20T16:17:19.261Z,70.45
2023-01-20T16:20:30.005Z,63.08
2023-01-20T16:23:08.969Z,63.60
2023-01-20T16:25:37.291Z,58.20
2023-01-20T16:28:33.454Z,55.47
2023-01-20T16:31:12.834Z,59.55
2023-01-20T16:33:55.667Z,59.88
2023-01-20T16:36:26.635Z,57.53
2023-01-20T16:41:42.525Z,58.92
2023-01-20T16:44:30.546Z,58.35
2023-01-20T16:46:58.971Z,62.78
2023-01-20T16:49:28.272Z,61.85
2023-01-20T16:51:55.615Z,65.20
2023-01-20T16:54:22.704Z,62.53
2023-01-20T16:56:49.888Z,62.33
2023-01-20T16:59:21.478Z,71.22
2023-01-20T17:01:49.318Z,66.05
2023-01-20T17:04:17.015Z,66.05
2023-01-20T17:06:44.346Z,59.10
2023-01-20T17:09:14.513Z,55.25
2023-01-20T17:11:42.130Z,72.32
2023-01-20T17:17:22.723Z,52.80
2023-01-20T17:19:49.854Z,50.58
2023-01-20T17:22:17.774Z,62.92
2023-01-20T17:24:45.047Z,57.92
2023-01-20T17:27:48.910Z,62.90
2023-01-20T17:30:17.712Z,57.00
2023-01-20T17:32:49.174Z,57.67
2023-01-20T17:36:29.250Z,56.10
2023-01-20T17:39:12.814Z,53.92
2023-01-20T17:42:12.235Z,58.95
2023-01-20T17:44:41.242Z,59.05
2023-01-20T17:47:08.349Z,54.83
2023-01-20T17:49:35.385Z,53.55
2023-01-20T17:52:02.980Z,50.20
2023-01-20T17:54:30.194Z,54.25
2023-01-20T17:56:57.497Z,58.28
2023-01-20T17:59:26.489Z,55.47
2023-01-20T18:01:57.061Z,54.78
2023-01-20T18:04:24.472Z,53.53
2023-01-20T18:06:51.677Z,55.28
2023-01-20T18:09:23.896Z,57.63
2023-01-20T18:11:51.021Z,51.45
2023-01-20T18:14:18.440Z,54.33
2023-01-20T18:16:48.083Z,57.03
2023-01-20T18:19:15.211Z,46.42
2023-01-20T18:21:43.919Z,59.58
2023-01-20T18:24:12.672Z,48.95
2023-01-20T18:26:42.706Z,46.40
2023-01-20T18:36:31.628Z,44.47
2023-01-20T18:39:07.743Z,50.42
2023-01-20T18:41:37.588Z,42.08
2023-01-20T18:44:06.099Z,36.45
2023-01-20T18:46:57.802Z,44.08
2023-01-20T18:49:27.406Z,48.78
2023-01-20T18:51:54.891Z,37.03
2023-01-20T18:54:37.492Z,42.90
2023-01-20T18:59:34.741Z,37.72
2023-01-20T19:02:04.519Z,43.67
2023-01-20T19:04:33.705Z,45.45
2023-01-20T19:07:00.808Z,37.35
2023-01-20T19:09:31.231Z,43.35
2023-01-20T19:11:58.510Z,46.13
2023-01-20T19:14:28.295Z,54.97
2023-01-20T19:16:56.013Z,53.08
2023-01-20T19:19:23.813Z,42.22
2023-01-20T19:21:53.015Z,42.30
2023-01-20T19:24:21.837Z,32.47
2023-01-20T19:26:49.942Z,47.47
2023-01-20T19:29:18.163Z,41.85
2023-01-20T19:31:45.492Z,45.88
2023-01-20T19:34:16.565Z,33.88
2023-01-20T19:36:43.626Z,39.00
2023-01-20T19:39:10.614Z,42.47
2023-01-20T19:41:39.836Z,41.25
2023-01-20T19:44:08.045Z,51.70
2023-01-20T19:46:38.960Z,43.97
2023-01-20T19:49:11.120Z,43.22
2023-01-20T19:51:39.077Z,41.70
2023-01-20T19:54:07.373Z,48.25
2023-01-20T19:56:36.621Z,38.45
2023-01-20T19:59:06.091Z,42.33
2023-01-20T20:01:36.896Z,43.85
2023-01-20T20:04:08.056Z,40.75
2023-01-20T20:06:47.906Z,42.75
2023-01-20T20:09:23.489Z,47.67
2023-01-20T20:11:52.929Z,41.30
2023-01-20T20:14:22.965Z,47.35
2023-01-20T20:16:50.793Z,34.90
2023-01-20T20:19:20.572Z,30.70
2023-01-20T20:21:49.046Z,35.08
2023-01-20T20:24:18.328Z,30.42
2023-01-20T20:26:48.983Z,31.88
2023-01-20T20:29:18.768Z,37.97
2023-01-20T20:31:49.565Z,33.50
2023-01-20T20:34:19.859Z,39.45
2023-01-20T20:36:47.602Z,37.60
2023-01-20T20:39:17.480Z,39.03
2023-01-20T20:41:47.012Z,34.85
2023-01-20T20:44:19.583Z,38.47
2023-01-20T20:46:50.216Z,42.03
2023-01-20T20:49:29.188Z,43.58
2023-01-20T20:51:57.435Z,46.05
2023-01-20T20:54:24.692Z,40.83
2023-01-20T20:56:52.191Z,44.35
2023-01-20T20:59:24.835Z,48.75
2023-01-20T21:01:54.972Z,48.67
2023-01-20T21:04:23.619Z,42.15
2023-01-20T21:06:51.407Z,45.40
2023-01-20T21:09:19.588Z,39.38
2023-01-20T21:12:19.976Z,36.20
2023-01-20T21:14:53.376Z,46.05
2023-01-20T21:17:20.536Z,42.63
2023-01-20T21:19:52.126Z,44.95
2023-01-20T21:22:19.950Z,39.58
2023-01-20T21:24:47.030Z,38.72
2023-01-20T21:27:14.089Z,42.88
2023-01-20T21:29:48.507Z,51.20
2023-01-20T21:32:17.213Z,48.70
2023-01-20T21:34:45.041Z,52.05
2023-01-20T21:37:12.461Z,48.67
2023-01-20T21:39:54.414Z,49.13
2023-01-20T21:42:27.681Z,57.55
2023-01-20T21:45:04.195Z,58.85
2023-01-20T21:47:33.404Z,58.47
2023-01-20T21:50:19.132Z,50.15
2023-01-20T21:52:46.324Z,48.50
2023-01-20T21:55:30.157Z,52.95
2023-01-20T21:57:57.481Z,54.83
2023-01-20T22:00:24.600Z,59.38
2023-01-20T22:02:57.664Z,66.65
2023-01-20T22:05:24.818Z,63.67
2023-01-20T22:07:51.867Z,61.83
2023-01-20T22:10:19.189Z,63.38
2023-01-20T22:12:46.216Z,55.28
2023-01-20T22:15:26.740Z,58.28
2023-01-20T22:17:54.304Z,59.30
2023-01-20T22:20:21.370Z,54.70
2023-01-20T22:22:52.029Z,58.30
2023-01-20T22:25:19.357Z,46.30
2023-01-20T22:27:59.795Z,51.25
2023-01-20T22:30:29.916Z,50.67
2023-01-20T22:33:06.040Z,58.28
2023-01-20T22:35:49.621Z,59.35
2023-01-20T22:38:23.569Z,53.78
2023-01-20T22:40:51.137Z,52.20
2023-01-20T22:43:20.757Z,46.17
2023-01-20T22:45:48.494Z,48.60
2023-01-20T22:48:15.716Z,45.00
2023-01-20T22:50:42.928Z,46.33
2023-01-20T22:53:11.180Z,47.63
2023-01-20T22:55:48.863Z,55.58
2023-01-20T22:58:23.199Z,49.50
2023-01-20T23:00:50.922Z,53.75
2023-01-20T23:03:19.633Z,47.85
2023-01-20T23:05:58.578Z,59.08
2023-01-20T23:08:28.612Z,47.50
2023-01-20T23:11:00.363Z,49.22
2023-01-20T23:13:28.982Z,43.60
2023-01-20T23:15:57.734Z,39.45
2023-01-20T23:18:25.740Z,26.92
2023-01-20T23:20:57.625Z,32.75
2023-01-20T23:23:44.594Z,37.13
2023-01-20T23:26:26.868Z,28.20
2023-01-20T23:28:55.605Z,30.00
2023-01-20T23:31:42.787Z,36.00
2023-01-20T23:34:13.792Z,38.05
2023-01-20T23:36:41.288Z,33.85
2023-01-20T23:39:14.372Z,23.42
2023-01-20T23:41:42.724Z,30.25
2023-01-20T23:44:13.952Z,35.28
2023-01-20T23:46:50.190Z,30.42
2023-01-20T23:49:17.529Z,38.10
2023-01-20T23:51:44.594Z,24.50
2023-01-20T23:54:14.911Z,33.22
2023-01-20T23:56:44.463Z,33.65
2023-01-20T23:59:12.315Z,33.75
